aviador You're here:

KSTF Decoded Metar

in
Report Time2018-02-18 17:35:00
UTC Time2018-02-18 17:48:59
Flight Rules mvfr MVFR
Wind120° at 06 kt
W.Decomp.*RWY 18: 3.0 kt HW 5.2 kt LCW
W.Rank120° ranks 15
Current wind is above 120° avg. (5.1)
Visibility9999 m
Phenomena:N/A
Clouds:Scattered 010 Hf
Overcast 015 Hf
Expected CloudBase > 800 ft AGL from Temp-Dew spread
Ceiling1,500 ft
Temp10°C
Dew Point08°C (88% RH)
AAT7.4°C
QNH1025 hPa
Raw Report
KSTF 181735Z AUTO 12006KT 10SM SCT010 OVC015 10/08 A3026 RMK
AO2=

Extra information for KSTF:More info

Social comments